Timeline UpdatesTrip UpdatesNews PostsPvt Posts♥♥Travel TipsAdmin PostsConv PostsFollowed PostsChat RequestsBlog PostsPNR Posts

Disclaimer
Search
 
 
Mon Nov 24, 2014 21:39:22 ISTHomeTrainsΣChainsAtlasPNRForumGalleryNewsFAQTripsMembersLoginFeedback
No Recent News for this Train
Other Trains in the News **new
Latest...
-
Tue Aug 05, 2014 (01:25PM)
⇐ Return Journey: Train# 16508

16507/Bhagat Ki Kothi - Bangalore Express

Time-Table HAS CHANGED.
Sep 01 2014 (11:39PM)
Change Departure Station:
Change Arrival Station:
Post a Train Travel TipPost a Train Travel Tip **new
Post a Comment/Question/Picture/VideoPost a Comment/Question/Picture/Video
Pantry/Catering
✓ Pantry Car Avbl
✓ Catering Avbl
RSA - Rake Sharing
Rake/Coach Composition
SLR-2; UR-3; SL-12; 3A-3; 2A-2 ;PC.total 23 coaches.Permanent 3AC from April 11 ex-Jodhpur.
Loco
Wdp-4 hubli shed
News    PNR    Forum    Time-Table    Availability    Fare Chart    Map    Arr/Dep History    Trips    Gallery    ΣChains    X/O    Timeline    
Travel Time: 8h 45m    8 halts    Distance: 446 km    Avg Speed: 50 km/hr
Type: Mail/Express
Zone: SWR/South Western
Departs @ 14:50 (Avg 1m late)
Platform# 7
    T S
Ahmedabad Junction/ADI 
Arrives @ 23:35 (Avg 1m early)
Platform# 7
    T S
Vasai Road/BSR 

8 halts. 82 intermediate Stations between Ahmedabad Junction and Vasai Road

Show ALL intermediate Stations  Show Old Time-Table

#TrkCodeStation NameX/OArrivesAvgDepartsAvgHaltPFDay#KmSpeedElevZoneAddress
1|==|BGKTBhagat Ki Kothi (3)  -05:40 05:35+0--1-456.449229mNWRJodhpur, Rajasthan
2|=-|LUNILuni Junction (3)  06:10+506:13+93m--1-428.163180mNWRLuni, Rajasthan
3|--|PMYPali Marwar (2)  06:41 06:52+906:43 06:54+122m--1-386.938221mNWRPali, Rajasthan
4|--|MJMarwar Junction (4)  07:36 07:43+307:45+79 2m31-356.080267mNWRMarwar Junction, Rajasthan
5|--|FAFalna (2)  08:34 08:35+1408:36 08:37+162m11-289.565282mNWRFalna, Rajasthan
6|--|JWBJawai Bandh  08:51 08:52+1708:53 08:54+172m--1-273.369292mNWRPali, Rajasthan
7!==!ABRAbu Road (3)X  10:06+2110:25+1819m--1-190.638264mNWRSirohi Dist, Rajasthan
8!=-|PNUPalanpur Junction (5)X  11:48+211:50+92m11-138.063216mWRPalanpur, Gujarat
9|--|SIDSiddhpur  12:18+1012:20+102m--1-108.647136mWRState Highway 41, Gujarat
10|--|MSHMahesana Junction (6)  13:05+1813:07+232m--1-73.05395mWRMehsana, Gujarat
11/==/ADIAhmedabad Junction (12)»  14:30+814:50+120m710.05451mWRAhmedabad, Gujarat
12/==/NDNadiad Junction (4)  15:41+2015:43+202m1145.66237mWRNadiad, Gujarat
13/==/ANNDAnand Junction (6)X  16:01+2516:03+252m1164.05144mWRAnand, Gujarat
14/==/BRCVadodara Junction (7)X  16:42 16:45+2416:52 16:55+2310m1199.88536mWRVadodara 390005, Gujarat
15/==/BHBharuch Junction (5)  17:39 17:45+2117:41 17:47+192m41170.34619mWRBharuch, Gujarat
16/==/STSurat (4)X  19:05+819:15+710m21229.65919mWRSurat 395001, Gujarat
17/==/NVSNavsari (3)  19:45+1319:47+142m21259.26514mWRNavsari, Gujarat
18/==/BLValsad (3)X  20:23+1220:25+152m31298.36615mWRValsad, Gujarat
19/==/VAPIVapi (3)  20:49+1820:51+182m21324.54427mWRVapi, Gujarat
20/==/BSRVasai Road (7)•X  23:35-123:40+55m71445.6537mWRVasai 401202, Maharashtra
21/==/BIRDBhiwandi Road (4)X  00:11+800:13+82m22472.92126mCRBhiwandi, Maharashtra
22/==/KYNKalyan Junction (8)  01:08 01:05-301:10+72 5m62490.94810mCRKalyan 421301, Maharashtra
23/==/KJTKarjat Junction (4)  02:08+702:10+122m12537.75257mCRKarjat, Maharashtra
24/==/LNLLonavala (3)  02:58 02:43+1303:00 02:45+142m12566.445623mCRLonavala 410401, Maharashtra
25/==/PUNEPune Junction (6)X  04:10+504:20+1210m12630.051556mCRPune 411001, Maharashtra
26|--|STRSatara (3)  07:10+2507:13+273m--2775.765637mCRSatara, Maharashtra
27|--|KRDKarad (3)  08:08 08:07+2708:10+282 3m--2834.453597mCRDist- Satara., Maharashtra
28|--|SLISangli (3)X  09:27+1009:30+173m32902.37559mCRSangli, Maharashtra
29|--|MRJMiraj Junction (6)  10:30+010:35+05m12909.654554mCRMiraj 416410, Maharashtra
30|--|GPBGhatprabha (2)  12:03+3412:05+342m--2989.143621mSWRGhatprabha, Karnataka
31|--|BGMBelgaum (3)  13:25+3813:30+385m--21047.068752mSWRBelgaum 590001, Karnataka
32|--|LDLonda Junction (3)  14:15+5014:17+582m--21098.334643mSWRLonda, Karnataka
33|=-|DWRDharwad (4)X  16:20+2216:25+225m--21168.818737mSWRDharwad 580001, Karnataka
34|--|UBLHubli Junction (5)  17:30+017:40+310m121188.858640mSWRHubli - 580020, Karnataka
35|--|HVRHaveri (3)  18:50 18:58+1818:52 19:00+222m--21263.970558mSWRHaveri, Karnataka
36|--|RNRRanibennur (3)  19:26 19:28+3919:28 19:30+392m--21296.542583mSWRRanebennur, Karnataka
37|--|HRRHarihar (3)X  20:05 20:03+3020:10 20:05+335 2m--21319.843553mSWRHarihar, Karnataka
38|--|DVGDavangere (2)  20:24 20:23+3420:27 20:25+353 2m121332.667598mSWRDavanagere, Karnataka
39|==|RRBBirur Junction (3)  22:08+2222:10+222m--21447.654802mSWRBirur, Karnataka
40|==|ASKArsikere Junction (3)  23:00+1123:05+175m--21492.655816mSWRArsikere, Karnataka
41|--|TTRTiptur (4)X  23:33+1723:35+242m--21518.138860mSWRTiptur, Karnataka
42|--|TKTumkur (3)  01:28+201:30+42m--31589.144823mSWRTumkur, Karnataka
43/==/YPRYesvantpur Junction (6)  02:55 02:58+003:00+05 2m--31653.121919mSWRBengaluru 560022, Karnataka
44/==/MWMMalleswaram (2)  03:08+003:10+02m--31655.934916mSWRBengaluru, Karnataka
45/==/SBCBangalore City Junction (10)  03:15-1-831658.7-903mSWRBengaluru-560023, Karnataka
Scroll to Top
Scroll to Bottom